createdAt,value
2023-04-14T00:02:05.156Z,100777.94
2023-04-14T00:04:35.318Z,100775.16
2023-04-14T00:07:05.198Z,100781.97
2023-04-14T00:09:35.132Z,100787.09
2023-04-14T00:12:09.084Z,100793.09
2023-04-14T00:14:45.867Z,100791.22
2023-04-14T00:17:15.870Z,100798.13
2023-04-14T00:19:45.757Z,100799.69
2023-04-14T00:22:15.717Z,100804.81
2023-04-14T00:24:49.071Z,100800.34
2023-04-14T00:27:18.897Z,100801.09
2023-04-14T00:29:51.460Z,100806.19
2023-04-14T00:32:21.649Z,100815.66
2023-04-14T00:34:51.700Z,100820.00
2023-04-14T00:37:21.735Z,100811.19
2023-04-14T00:39:51.861Z,100819.84
2023-04-14T00:42:21.789Z,100805.75
2023-04-14T00:44:54.254Z,100807.38
2023-04-14T00:47:26.986Z,100817.69
2023-04-14T00:49:56.900Z,100815.75
2023-04-14T00:52:29.347Z,100817.38
2023-04-14T00:54:59.380Z,100812.00
2023-04-14T00:57:30.218Z,100803.94
2023-04-14T01:00:05.346Z,100808.13
2023-04-14T01:02:36.146Z,100809.75
2023-04-14T01:05:06.874Z,100814.84
2023-04-14T01:07:37.232Z,100813.84
2023-04-14T01:10:08.823Z,100819.00
2023-04-14T01:12:58.326Z,100823.25
2023-04-14T01:15:37.049Z,100830.19
2023-04-14T01:18:13.928Z,100836.09
2023-04-14T01:20:45.248Z,100834.22
2023-04-14T01:23:18.932Z,100832.34
2023-04-14T01:26:08.365Z,100835.63
2023-04-14T01:28:51.417Z,100841.44
2023-04-14T01:31:30.033Z,100846.41
2023-04-14T01:34:07.068Z,100841.91
2023-04-14T01:36:43.532Z,100848.03
2023-04-14T01:39:19.320Z,100841.97
2023-04-14T01:41:52.585Z,100848.03
2023-04-14T01:44:24.722Z,100852.50
2023-04-14T01:47:05.282Z,100842.97
2023-04-14T01:49:38.379Z,100851.78
2023-04-14T01:52:11.301Z,100858.72
2023-04-14T01:54:44.055Z,100848.19
2023-04-14T01:57:15.976Z,100856.84
2023-04-14T01:59:48.380Z,100857.59
2023-04-14T02:02:25.439Z,100866.97
2023-04-14T02:04:57.666Z,100863.41
2023-04-14T02:07:29.497Z,100865.91
2023-04-14T02:10:01.624Z,100871.03
2023-04-14T02:12:33.768Z,100876.94
2023-04-14T02:15:04.809Z,100873.31
2023-04-14T02:17:37.876Z,100883.59
2023-04-14T02:20:10.558Z,100885.22
2023-04-14T02:22:40.532Z,100880.00
2023-04-14T02:25:11.629Z,100877.38
2023-04-14T02:27:49.234Z,100893.16
2023-04-14T02:30:24.664Z,100874.03
2023-04-14T02:33:06.160Z,100878.53
2023-04-14T02:35:43.949Z,100882.16
2023-04-14T02:38:22.488Z,100883.03
2023-04-14T02:40:54.175Z,100886.50
2023-04-14T02:43:31.779Z,100892.59
2023-04-14T02:46:04.550Z,100894.31
2023-04-14T02:48:39.100Z,100893.31
2023-04-14T02:51:11.616Z,100902.66
2023-04-14T02:53:42.074Z,100905.03
2023-04-14T02:56:14.616Z,100907.41
2023-04-14T02:58:45.126Z,100911.53
2023-04-14T03:01:16.444Z,100910.41
2023-04-14T03:03:49.127Z,100919.69
2023-04-14T03:06:19.532Z,100914.22
2023-04-14T03:08:51.183Z,100908.84
2023-04-14T03:11:21.757Z,100914.69
2023-04-14T03:13:55.430Z,100905.91
2023-04-14T03:16:29.969Z,100914.53
2023-04-14T03:19:04.686Z,100903.09
2023-04-14T03:21:34.785Z,100910.75
2023-04-14T03:24:08.612Z,100911.59
2023-04-14T03:26:40.730Z,100916.72
2023-04-14T03:29:12.297Z,100914.84
2023-04-14T03:31:44.465Z,100918.25
2023-04-14T03:34:19.221Z,100914.75
2023-04-14T03:36:51.665Z,100913.84
2023-04-14T03:39:23.225Z,100915.72
2023-04-14T03:41:54.969Z,100907.16
2023-04-14T03:44:26.743Z,100914.38
2023-04-14T03:46:57.472Z,100916.25
2023-04-14T03:49:33.397Z,100913.00
2023-04-14T03:52:11.849Z,100914.00
2023-04-14T03:54:44.659Z,100913.25
2023-04-14T03:57:18.100Z,100911.53
2023-04-14T03:59:50.972Z,100914.31
2023-04-14T04:02:24.046Z,100917.81
2023-04-14T04:04:58.567Z,100922.41
2023-04-14T04:07:30.095Z,100918.91
2023-04-14T04:10:03.406Z,100917.19
2023-04-14T04:12:36.000Z,100925.00
2023-04-14T04:15:05.860Z,100925.00
2023-04-14T04:17:36.140Z,100917.91
2023-04-14T04:20:11.838Z,100922.25
2023-04-14T04:22:45.184Z,100926.53
2023-04-14T04:25:16.028Z,100936.91
2023-04-14T04:27:46.161Z,100939.25
2023-04-14T04:30:17.792Z,100947.72
2023-04-14T04:32:47.722Z,100938.00
2023-04-14T04:35:21.789Z,100934.50
2023-04-14T04:37:52.348Z,100952.88
2023-04-14T04:40:22.516Z,100954.53
2023-04-14T04:42:54.965Z,100954.38
2023-04-14T04:45:47.152Z,100953.31
2023-04-14T04:48:17.143Z,100950.56
2023-04-14T04:50:49.686Z,100953.06
2023-04-14T04:53:19.849Z,100952.00
2023-04-14T04:55:49.764Z,100960.47
2023-04-14T04:58:19.721Z,100962.06
2023-04-14T05:00:49.865Z,100971.72
2023-04-14T05:03:21.114Z,100975.28
2023-04-14T05:05:53.599Z,100971.22
2023-04-14T05:08:23.621Z,100970.75
2023-04-14T05:10:54.939Z,100971.38
2023-04-14T05:13:25.060Z,100970.25
2023-04-14T05:15:54.983Z,100970.09
2023-04-14T05:18:24.842Z,100968.22
2023-04-14T05:20:57.308Z,100978.44
2023-04-14T05:23:27.162Z,100963.97
2023-04-14T05:26:11.264Z,100970.28
2023-04-14T05:28:48.825Z,100979.16
2023-04-14T05:31:18.949Z,100980.22
2023-04-14T05:33:48.811Z,100987.34
2023-04-14T05:36:21.745Z,100979.75
2023-04-14T05:38:54.326Z,100986.19
2023-04-14T05:41:24.135Z,100983.97
2023-04-14T05:43:54.115Z,100990.31
2023-04-14T05:46:24.131Z,100987.31
2023-04-14T05:48:54.003Z,100987.72
2023-04-14T05:51:27.950Z,100986.47
2023-04-14T05:53:58.182Z,100992.00
2023-04-14T05:56:28.484Z,100996.59
2023-04-14T05:58:58.298Z,100996.97
2023-04-14T06:01:28.138Z,100992.50
2023-04-14T06:03:58.145Z,100988.88
2023-04-14T06:06:34.969Z,100987.28
2023-04-14T06:09:04.759Z,100989.38
2023-04-14T06:11:34.949Z,100985.97
2023-04-14T06:14:05.740Z,100986.91
2023-04-14T06:16:35.660Z,100989.41
2023-04-14T06:19:06.307Z,100987.50
2023-04-14T06:21:38.834Z,100990.94
2023-04-14T06:24:09.229Z,100993.47
2023-04-14T06:26:41.222Z,100981.19
2023-04-14T06:29:13.701Z,100978.53
2023-04-14T06:31:43.817Z,100975.00
2023-04-14T06:34:13.699Z,100978.41
2023-04-14T06:36:46.331Z,100974.84
2023-04-14T06:39:20.220Z,100969.41
2023-04-14T06:41:50.139Z,100974.34
2023-04-14T06:44:22.369Z,100973.19
2023-04-14T06:46:52.225Z,100975.69
2023-04-14T06:49:24.189Z,100969.50
2023-04-14T06:51:56.617Z,100975.72
2023-04-14T06:54:27.238Z,100981.03
2023-04-14T06:56:58.500Z,100969.41
2023-04-14T06:59:31.287Z,100974.56
2023-04-14T07:02:01.659Z,100978.91
2023-04-14T07:04:31.870Z,100970.88
2023-04-14T07:07:08.270Z,100973.47
2023-04-14T07:09:38.115Z,100970.53
2023-04-14T07:12:08.724Z,100964.00
2023-04-14T07:14:38.560Z,100962.66
2023-04-14T07:17:09.920Z,100965.03
2023-04-14T07:19:39.772Z,100962.84
2023-04-14T07:22:12.223Z,100962.28
2023-04-14T07:24:42.281Z,100959.13
2023-04-14T07:27:15.766Z,100955.00
2023-04-14T07:29:45.936Z,100959.72
2023-04-14T07:32:16.186Z,100958.25
2023-04-14T07:34:46.057Z,100960.28
2023-04-14T07:37:19.185Z,100957.84
2023-04-14T07:39:57.121Z,100968.81
2023-04-14T07:42:27.828Z,100960.25
2023-04-14T07:44:57.719Z,100958.81
2023-04-14T07:47:27.664Z,100944.97
2023-04-14T07:49:58.614Z,100952.25
2023-04-14T07:52:31.159Z,100956.78
2023-04-14T07:55:00.978Z,100959.53
2023-04-14T07:57:30.808Z,100954.28
2023-04-14T08:00:00.647Z,100956.13
2023-04-14T08:02:30.728Z,100959.81
2023-04-14T08:05:00.927Z,100954.69
2023-04-14T08:07:33.550Z,100959.31
2023-04-14T08:10:03.749Z,100952.38
2023-04-14T08:12:33.633Z,100956.94
2023-04-14T08:15:05.040Z,100951.75
2023-04-14T08:17:34.964Z,100956.28
2023-04-14T08:20:05.101Z,100959.91
2023-04-14T08:22:38.220Z,100963.50
2023-04-14T08:25:12.945Z,100966.22
2023-04-14T08:27:42.769Z,100959.13
2023-04-14T08:30:14.186Z,100963.66
2023-04-14T08:32:44.043Z,100955.75
2023-04-14T08:35:35.317Z,100963.78
2023-04-14T08:38:06.345Z,100954.19
2023-04-14T08:40:40.072Z,100951.66
2023-04-14T08:43:12.461Z,100950.88
2023-04-14T08:45:45.405Z,100963.34
2023-04-14T08:48:17.749Z,100957.25
2023-04-14T08:51:01.839Z,100953.72
2023-04-14T08:53:35.568Z,100948.50
2023-04-14T08:56:09.634Z,100948.56
2023-04-14T08:58:39.582Z,100954.75
2023-04-14T09:01:13.631Z,100949.47
2023-04-14T09:03:44.235Z,100953.03
2023-04-14T09:06:16.075Z,100949.56
2023-04-14T09:08:48.487Z,100948.72
2023-04-14T09:11:21.278Z,100947.88
2023-04-14T09:13:52.706Z,100946.97
2023-04-14T09:16:22.843Z,100953.22
2023-04-14T09:18:52.727Z,100952.38
2023-04-14T09:21:31.185Z,100953.28
2023-04-14T09:24:17.173Z,100951.56
2023-04-14T09:26:47.058Z,100949.78
2023-04-14T09:29:17.013Z,100948.03
2023-04-14T09:31:49.939Z,100948.94
2023-04-14T09:34:21.267Z,100951.66
2023-04-14T09:37:06.438Z,100949.00
2023-04-14T09:39:52.665Z,100950.75
2023-04-14T09:42:22.985Z,100947.16
2023-04-14T09:44:57.110Z,100942.72
2023-04-14T09:47:27.827Z,100939.16
2023-04-14T09:50:03.636Z,100939.13
2023-04-14T09:52:44.934Z,100938.22
2023-04-14T09:55:18.912Z,100946.16
2023-04-14T09:57:52.049Z,100950.59
2023-04-14T10:00:24.749Z,100942.63
2023-04-14T10:02:58.551Z,100947.06
2023-04-14T10:05:33.760Z,100950.53
2023-04-14T10:08:05.661Z,100949.63
2023-04-14T10:10:38.106Z,100940.72
2023-04-14T10:13:07.934Z,100954.88
2023-04-14T10:15:38.712Z,100945.94
2023-04-14T10:18:08.974Z,100945.81
2023-04-14T10:20:40.148Z,100946.53
2023-04-14T10:23:09.991Z,100954.50
2023-04-14T10:25:42.691Z,100949.16
2023-04-14T10:28:12.688Z,100957.13
2023-04-14T10:30:44.525Z,100947.38
2023-04-14T10:33:14.703Z,100949.13
2023-04-14T10:35:48.117Z,100943.66
2023-04-14T10:38:18.064Z,100945.28
2023-04-14T10:40:57.177Z,100948.63
2023-04-14T10:43:30.970Z,100948.50
2023-04-14T10:46:05.507Z,100949.22
2023-04-14T10:48:36.526Z,100945.38
2023-04-14T10:51:09.271Z,100940.69
2023-04-14T10:53:41.114Z,100938.69
2023-04-14T10:56:13.783Z,100937.75
2023-04-14T10:58:43.751Z,100942.19
2023-04-14T11:01:32.301Z,100937.81
2023-04-14T11:04:21.033Z,100935.94
2023-04-14T11:06:58.129Z,100941.97
2023-04-14T11:09:29.353Z,100941.06
2023-04-14T11:12:07.126Z,100939.31
2023-04-14T11:14:38.918Z,100933.88
2023-04-14T11:17:11.847Z,100931.97
2023-04-14T11:19:43.120Z,100933.81
2023-04-14T11:22:12.942Z,100925.97
2023-04-14T11:24:43.766Z,100925.22
2023-04-14T11:27:18.198Z,100929.78
2023-04-14T11:29:52.322Z,100922.00
2023-04-14T11:32:22.277Z,100922.19
2023-04-14T11:34:52.451Z,100918.78
2023-04-14T11:37:22.983Z,100917.13
2023-04-14T11:39:58.062Z,100915.31
2023-04-14T11:42:34.631Z,100913.41
2023-04-14T11:45:06.982Z,100914.19
2023-04-14T11:47:36.910Z,100910.63
2023-04-14T11:50:07.818Z,100907.81
2023-04-14T11:52:49.230Z,100908.59
2023-04-14T11:55:34.091Z,100905.03
2023-04-14T12:44:24.241Z,100899.44
2023-04-14T12:46:56.036Z,100898.66
2023-04-14T12:49:36.553Z,100906.66
2023-04-14T12:52:09.241Z,100896.09
2023-04-14T12:54:52.350Z,100887.34
2023-04-14T12:57:23.523Z,100887.34
2023-04-14T12:59:55.925Z,100885.63
2023-04-14T13:02:26.261Z,100884.78
2023-04-14T13:04:57.268Z,100882.16
2023-04-14T13:07:27.302Z,100884.09
2023-04-14T13:09:57.220Z,100880.63
2023-04-14T13:12:27.343Z,100872.75
2023-04-14T13:15:03.406Z,100874.56
2023-04-14T13:17:33.426Z,100871.84
2023-04-14T13:20:04.025Z,100875.38
2023-04-14T13:22:33.916Z,100875.28
2023-04-14T13:25:04.529Z,100877.78
2023-04-14T13:27:34.348Z,100871.41
2023-04-14T13:30:08.034Z,100876.66
2023-04-14T13:32:37.912Z,100876.66
2023-04-14T13:35:10.998Z,100874.97
2023-04-14T13:37:41.444Z,100875.88
2023-04-14T13:40:15.781Z,100868.78
2023-04-14T13:42:45.911Z,100866.09
2023-04-14T13:45:21.170Z,100866.06
2023-04-14T13:47:52.280Z,100865.19
2023-04-14T13:50:25.101Z,100859.91
2023-04-14T13:52:55.006Z,100857.25
2023-04-14T13:55:26.465Z,100859.94
2023-04-14T13:57:58.254Z,100856.47
2023-04-14T14:00:31.293Z,100853.88
2023-04-14T14:03:01.358Z,100846.78
2023-04-14T14:05:31.810Z,100853.88
2023-04-14T14:08:03.759Z,100846.84
2023-04-14T14:32:20.212Z,100840.03
2023-04-14T14:34:50.299Z,100842.72
2023-04-14T14:37:21.523Z,100834.75
2023-04-14T14:39:51.569Z,100835.66
2023-04-14T14:42:22.126Z,100825.94
2023-04-14T14:45:01.042Z,100825.97
2023-04-14T14:53:15.830Z,100824.28
2023-04-14T15:02:03.488Z,100827.00
2023-04-14T15:04:36.813Z,100825.28
2023-04-14T15:13:41.424Z,100824.19
2023-04-14T15:16:11.351Z,100820.50
2023-04-14T15:18:56.290Z,100819.50
2023-04-14T15:21:26.459Z,100820.25
2023-04-14T15:58:28.499Z,100831.47
2023-04-14T16:01:01.698Z,100835.88
2023-04-14T16:03:31.802Z,100826.22
2023-04-14T16:06:07.048Z,100828.03
2023-04-14T16:08:37.426Z,100832.47
2023-04-14T16:11:09.653Z,100834.19
2023-04-14T16:13:44.206Z,100833.31
2023-04-14T16:16:15.950Z,100832.34
2023-04-14T16:18:45.819Z,100834.13
2023-04-14T16:21:15.864Z,100836.81
2023-04-14T16:23:45.760Z,100835.97
2023-04-14T16:26:16.641Z,100835.97
2023-04-14T16:28:49.136Z,100832.47
2023-04-14T16:31:19.121Z,100837.84
2023-04-14T16:33:48.929Z,100839.66
2023-04-14T16:36:20.126Z,100844.16
2023-04-14T16:38:51.183Z,100845.97
2023-04-14T16:41:21.549Z,100847.78
2023-04-14T16:43:54.138Z,100856.63
2023-04-14T16:46:26.219Z,100853.19
2023-04-14T16:48:56.307Z,100857.72
2023-04-14T16:51:27.154Z,100851.59
2023-04-14T16:53:57.110Z,100846.38
2023-04-14T16:56:26.972Z,100849.13
2023-04-14T16:58:59.801Z,100854.50
2023-04-14T17:01:29.972Z,100852.81
2023-04-14T17:04:00.055Z,100853.72
2023-04-14T17:06:30.368Z,100851.13
2023-04-14T17:09:00.887Z,100850.19
2023-04-14T17:11:30.690Z,100855.44
2023-04-14T17:14:03.389Z,100859.69
2023-04-14T17:16:33.511Z,100859.59
2023-04-14T17:19:05.368Z,100860.41
2023-04-14T17:21:35.440Z,100866.38
2023-04-14T17:24:06.703Z,100863.41
2023-04-14T17:26:36.814Z,100863.91
2023-04-14T17:29:09.532Z,100860.13
2023-04-14T17:31:49.195Z,100864.38
2023-04-14T17:34:20.829Z,100872.09
2023-04-14T17:36:50.992Z,100869.22
2023-04-14T17:39:26.944Z,100866.38
2023-04-14T17:41:58.326Z,100868.03
2023-04-14T17:44:34.896Z,100871.47
2023-04-14T17:47:12.964Z,100877.53
2023-04-14T17:49:43.035Z,100875.72
2023-04-14T17:52:13.793Z,100881.72
2023-04-14T17:54:43.724Z,100888.66
2023-04-14T17:57:16.014Z,100883.31
2023-04-14T17:59:48.795Z,100886.75
2023-04-14T18:02:19.671Z,100904.34
2023-04-14T18:04:49.701Z,100925.50
2023-04-14T18:07:19.769Z,100927.31
2023-04-14T18:09:49.769Z,100931.00
2023-04-14T18:12:22.960Z,100923.19
2023-04-14T18:14:56.156Z,100916.13
2023-04-14T18:17:26.223Z,100912.63
2023-04-14T18:19:59.212Z,100913.53
2023-04-14T18:22:32.988Z,100926.59
2023-04-14T18:25:02.906Z,100922.69
2023-04-14T18:30:11.451Z,100923.28
2023-04-14T18:32:41.691Z,100916.59
2023-04-14T18:35:18.642Z,100930.34
2023-04-14T18:37:48.666Z,100921.88
2023-04-14T18:40:19.210Z,100922.28
2023-04-14T18:46:53.696Z,100926.56
2023-04-14T18:50:09.534Z,100927.81
2023-04-14T18:52:42.069Z,100927.25
2023-04-14T18:55:12.618Z,100935.66
2023-04-14T18:57:42.997Z,100938.03
2023-04-14T19:11:03.880Z,100947.66
2023-04-14T19:13:33.827Z,100948.31
2023-04-14T19:16:14.366Z,100949.03
2023-04-14T19:18:44.935Z,100958.44
2023-04-14T19:21:14.932Z,100963.50
2023-04-14T19:23:45.838Z,100957.19
2023-04-14T19:26:19.685Z,100967.66
2023-04-14T19:28:58.994Z,100961.34
2023-04-14T19:31:30.585Z,100970.81
2023-04-14T19:34:00.932Z,100973.28
2023-04-14T19:36:35.557Z,100972.22
2023-04-14T19:39:05.387Z,100980.78
2023-04-14T19:41:53.792Z,100981.56
2023-04-14T19:44:25.026Z,100987.53
2023-04-14T19:47:00.347Z,100987.47
2023-04-14T19:49:32.098Z,100988.22
2023-04-14T19:52:07.743Z,100988.13
2023-04-14T19:54:43.098Z,100989.78
2023-04-14T19:57:15.769Z,100984.34
2023-04-14T19:59:49.077Z,100991.19
2023-04-14T20:02:20.326Z,100992.78
2023-04-14T20:04:50.698Z,100984.75
2023-04-14T20:07:22.168Z,100984.59
2023-04-14T20:10:09.154Z,100992.44
2023-04-14T20:12:41.592Z,100987.06
2023-04-14T20:15:15.195Z,100983.50
2023-04-14T20:17:47.632Z,100983.47
2023-04-14T20:20:21.237Z,100981.63
2023-04-14T20:22:52.724Z,100977.97
2023-04-14T20:25:25.670Z,100988.31
2023-04-14T20:27:58.710Z,100985.56
2023-04-14T20:33:05.904Z,100985.47
2023-04-14T20:35:43.707Z,100998.59
2023-04-14T20:38:15.434Z,100996.75
2023-04-14T20:40:46.977Z,100992.28
2023-04-14T20:43:37.248Z,100992.94
2023-04-14T20:46:12.728Z,100994.59
2023-04-14T20:51:54.144Z,100990.97
2023-04-14T20:54:36.113Z,100994.22
2023-04-14T20:57:18.322Z,100991.56
2023-04-14T20:59:53.233Z,100992.34
2023-04-14T21:02:26.361Z,100992.16
2023-04-14T21:04:56.760Z,100993.75
2023-04-14T21:07:33.376Z,100994.50
2023-04-14T21:10:03.209Z,100990.19
2023-04-14T21:12:35.443Z,100992.66
2023-04-14T21:15:28.977Z,100989.94
2023-04-14T21:18:06.358Z,100990.69
2023-04-14T21:20:36.196Z,100988.84
2023-04-14T21:23:06.101Z,100988.84
2023-04-14T21:25:36.064Z,100994.94
2023-04-14T21:28:05.882Z,100992.31
2023-04-14T21:30:39.078Z,101001.09
2023-04-14T21:33:09.091Z,100996.59
2023-04-14T21:35:39.008Z,101001.94
2023-04-14T21:38:11.515Z,101007.09
2023-04-14T21:40:41.408Z,101003.47
2023-04-14T21:43:11.239Z,100999.03
2023-04-14T21:45:46.070Z,101014.78
2023-04-14T21:48:19.344Z,101011.16
2023-04-14T21:50:52.176Z,101011.97
2023-04-14T21:53:23.022Z,101009.34
2023-04-14T21:56:07.580Z,101013.63
2023-04-14T21:58:43.317Z,101015.16
2023-04-14T22:01:23.364Z,101024.66
2023-04-14T22:04:01.553Z,101023.66
2023-04-14T22:06:31.951Z,101016.47
2023-04-14T22:09:03.028Z,101025.19
2023-04-14T22:11:42.191Z,101023.47
2023-04-14T22:14:19.402Z,101027.03
2023-04-14T22:16:51.830Z,101029.59
2023-04-14T22:19:25.218Z,101030.44
2023-04-14T22:22:00.931Z,101033.88
2023-04-14T22:24:32.368Z,101035.69
2023-04-14T22:27:05.679Z,101037.47
2023-04-14T22:29:35.504Z,101040.97
2023-04-14T22:32:11.846Z,101044.50
2023-04-14T22:34:41.926Z,101041.81
2023-04-14T22:37:11.776Z,101042.59
2023-04-14T22:42:16.837Z,101055.72
2023-04-14T22:44:56.253Z,101045.13
2023-04-14T22:47:33.911Z,101050.34
2023-04-14T22:59:17.223Z,101047.78
2023-04-14T23:01:49.655Z,101054.72
2023-04-14T23:07:17.365Z,101052.53
2023-04-14T23:09:51.265Z,101055.09
2023-04-14T23:12:21.089Z,101055.00
2023-04-14T23:14:50.893Z,101058.53
2023-04-14T23:17:24.547Z,101052.47
2023-04-14T23:19:54.373Z,101048.88
2023-04-14T23:22:26.935Z,101050.69
2023-04-14T23:25:04.984Z,101059.31
2023-04-14T23:27:43.288Z,101059.16
2023-04-14T23:30:17.846Z,101064.25
2023-04-14T23:32:47.734Z,101065.09
2023-04-14T23:35:18.900Z,101063.25
2023-04-14T23:37:56.782Z,101061.50
2023-04-14T23:40:27.478Z,101064.00
2023-04-14T23:42:59.152Z,101061.31
2023-04-14T23:52:27.538Z,101068.06
2023-04-14T23:55:17.238Z,101066.28
